createdAt,value
2018-05-02T00:02:13.555Z,67.30
2018-05-02T00:04:41.195Z,67.10
2018-05-02T00:07:08.766Z,67.00
2018-05-02T00:09:36.343Z,66.80
2018-05-02T00:12:03.932Z,67.20
2018-05-02T00:14:31.563Z,67.00
2018-05-02T00:16:59.151Z,67.10
2018-05-02T00:19:26.755Z,67.40
2018-05-02T00:21:54.326Z,67.50
2018-05-02T00:24:21.952Z,68.00
2018-05-02T00:26:50.341Z,68.40
2018-05-02T00:29:18.711Z,68.50
2018-05-02T00:31:47.049Z,69.10
2018-05-02T00:34:14.809Z,69.10
2018-05-02T00:36:42.687Z,69.30
2018-05-02T00:39:10.255Z,69.10
2018-05-02T00:41:37.846Z,68.60
2018-05-02T00:44:06.205Z,68.40
2018-05-02T00:46:34.641Z,68.60
2018-05-02T00:49:16.898Z,68.40
2018-05-02T00:51:45.230Z,68.30
2018-05-02T00:54:12.843Z,68.30
2018-05-02T00:56:41.196Z,69.20
2018-05-02T00:59:09.738Z,69.20
2018-05-02T01:01:37.383Z,69.30
2018-05-02T01:04:04.962Z,69.30
2018-05-02T01:06:32.553Z,69.30
2018-05-02T01:09:00.174Z,69.40
2018-05-02T01:11:27.776Z,69.50
2018-05-02T01:13:56.198Z,69.80
2018-05-02T01:16:23.768Z,69.80
2018-05-02T01:18:51.943Z,69.80
2018-05-02T01:21:19.615Z,69.90
2018-05-02T01:23:47.180Z,69.90
2018-05-02T01:26:14.789Z,69.90
2018-05-02T01:28:43.225Z,70.00
2018-05-02T01:31:10.793Z,70.00
2018-05-02T01:33:38.394Z,69.90
2018-05-02T01:36:06.782Z,70.60
2018-05-02T01:38:34.394Z,70.50
2018-05-02T01:41:01.980Z,70.20
2018-05-02T01:43:30.360Z,71.00
2018-05-02T01:45:58.747Z,71.10
2018-05-02T01:48:26.410Z,71.10
2018-05-02T01:50:54.822Z,71.30
2018-05-02T01:53:22.446Z,71.30
2018-05-02T01:55:50.033Z,71.10
2018-05-02T01:58:17.696Z,71.30
2018-05-02T02:00:45.259Z,72.10
2018-05-02T02:03:12.844Z,71.50
2018-05-02T02:05:40.492Z,72.10
2018-05-02T02:08:08.097Z,71.60
2018-05-02T02:10:36.438Z,71.60
2018-05-02T02:13:04.046Z,71.60
2018-05-02T02:15:32.391Z,72.20
2018-05-02T02:18:00.039Z,72.10
2018-05-02T02:20:27.648Z,72.50
2018-05-02T02:22:55.291Z,72.50
2018-05-02T02:25:23.637Z,71.70
2018-05-02T02:27:51.208Z,71.70
2018-05-02T02:30:18.824Z,72.40
2018-05-02T02:32:46.374Z,72.60
2018-05-02T02:35:13.944Z,72.40
2018-05-02T02:37:41.546Z,71.90
2018-05-02T02:40:09.174Z,71.70
2018-05-02T02:42:36.749Z,71.80
2018-05-02T02:45:04.330Z,72.60
2018-05-02T02:47:31.952Z,72.00
2018-05-02T02:49:59.529Z,70.10
2018-05-02T02:52:28.006Z,71.10
2018-05-02T02:54:55.630Z,71.30
2018-05-02T02:57:23.213Z,71.50
2018-05-02T02:59:50.775Z,71.50
2018-05-02T03:02:18.365Z,71.30
2018-05-02T03:04:45.992Z,70.60
2018-05-02T03:07:14.420Z,71.00
2018-05-02T03:09:42.766Z,71.50
2018-05-02T03:12:10.401Z,71.50
2018-05-02T03:14:38.001Z,71.20
2018-05-02T03:17:05.606Z,70.90
2018-05-02T03:19:33.205Z,68.90
2018-05-02T03:22:00.761Z,69.30
2018-05-02T03:24:28.329Z,69.90
2018-05-02T03:26:55.979Z,69.20
2018-05-02T03:29:23.550Z,68.60
2018-05-02T03:31:51.146Z,69.30
2018-05-02T03:34:18.777Z,68.40
2018-05-02T03:36:46.353Z,68.60
2018-05-02T03:39:14.052Z,69.20
2018-05-02T03:41:41.660Z,69.60
2018-05-02T03:44:09.250Z,67.70
2018-05-02T03:46:37.663Z,67.40
2018-05-02T03:49:05.239Z,67.10
2018-05-02T03:51:32.850Z,68.00
2018-05-02T03:54:01.278Z,68.10
2018-05-02T03:56:28.853Z,68.00
2018-05-02T03:58:56.401Z,69.20
2018-05-02T04:01:35.695Z,69.00
2018-05-02T04:04:14.972Z,68.40
2018-05-02T04:07:10.863Z,68.40
2018-05-02T04:09:38.476Z,69.60
2018-05-02T04:12:06.061Z,69.80
2018-05-02T04:14:33.632Z,68.70
2018-05-02T04:17:01.297Z,69.80
2018-05-02T04:19:28.857Z,69.90
2018-05-02T04:21:56.425Z,69.80
2018-05-02T04:24:24.009Z,69.10
2018-05-02T04:26:51.614Z,68.20
2018-05-02T04:29:19.958Z,70.00
2018-05-02T04:31:47.582Z,69.90
2018-05-02T04:34:15.161Z,68.50
2018-05-02T04:36:42.720Z,69.10
2018-05-02T04:39:10.333Z,68.50
2018-05-02T04:41:38.707Z,70.10
2018-05-02T04:44:07.046Z,67.50
2018-05-02T04:46:34.650Z,67.50
2018-05-02T04:49:03.011Z,68.50
2018-05-02T04:51:31.362Z,68.90
2018-05-02T04:53:59.115Z,68.80
2018-05-02T04:56:26.675Z,68.50
2018-05-02T04:58:54.292Z,69.70
2018-05-02T05:01:22.619Z,69.20
2018-05-02T05:03:50.193Z,68.90
2018-05-02T05:06:17.836Z,69.40
2018-05-02T05:08:45.400Z,69.80
2018-05-02T05:11:12.996Z,70.00
2018-05-02T05:13:41.371Z,69.20
2018-05-02T05:16:09.707Z,69.60
2018-05-02T05:18:37.320Z,69.60
2018-05-02T05:21:04.892Z,71.30
2018-05-02T05:23:32.484Z,71.70
2018-05-02T05:26:00.061Z,71.50
2018-05-02T05:28:27.639Z,71.90
2018-05-02T05:30:56.493Z,73.00
2018-05-02T05:33:24.110Z,72.80
2018-05-02T05:35:52.448Z,72.20
2018-05-02T05:38:20.742Z,72.20
2018-05-02T05:40:48.315Z,72.20
2018-05-02T05:43:16.677Z,72.00
2018-05-02T05:45:44.295Z,71.90
2018-05-02T05:48:11.896Z,70.70
2018-05-02T05:50:40.377Z,72.20
2018-05-02T05:53:07.953Z,70.70
2018-05-02T05:55:36.330Z,72.00
2018-05-02T05:58:04.660Z,72.20
2018-05-02T06:00:32.240Z,72.20
2018-05-02T06:02:59.859Z,71.50
2018-05-02T06:05:27.435Z,72.30
2018-05-02T06:07:54.994Z,71.70
2018-05-02T06:10:22.596Z,71.10
2018-05-02T06:12:50.976Z,71.20
2018-05-02T06:15:18.549Z,70.90
2018-05-02T06:17:46.926Z,70.10
2018-05-02T06:20:15.272Z,70.70
2018-05-02T06:22:42.866Z,70.60
2018-05-02T06:25:11.195Z,70.60
2018-05-02T06:27:38.757Z,70.50
2018-05-02T06:30:06.369Z,70.80
2018-05-02T06:32:33.928Z,69.60
2018-05-02T06:35:01.524Z,69.30
2018-05-02T06:37:29.104Z,70.90
2018-05-02T06:39:56.747Z,69.60
2018-05-02T06:42:24.383Z,69.20
2018-05-02T06:44:51.951Z,69.10
2018-05-02T06:47:19.515Z,69.60
2018-05-02T06:49:47.121Z,68.60
2018-05-02T06:52:14.697Z,69.20
2018-05-02T06:54:43.044Z,67.90
2018-05-02T06:57:10.674Z,67.90
2018-05-02T06:59:38.236Z,68.30
2018-05-02T07:02:05.824Z,69.70
2018-05-02T07:04:33.395Z,68.50
2018-05-02T07:07:01.768Z,68.50
2018-05-02T07:09:29.359Z,67.60
2018-05-02T07:11:56.922Z,67.70
2018-05-02T07:14:24.528Z,66.40
2018-05-02T07:16:52.123Z,66.90
2018-05-02T07:19:20.453Z,65.20
2018-05-02T07:21:48.099Z,65.10
2018-05-02T07:24:15.660Z,63.60
2018-05-02T07:26:43.232Z,63.70
2018-05-02T07:29:10.818Z,63.60
2018-05-02T07:31:38.392Z,62.30
2018-05-02T07:34:06.752Z,60.70
2018-05-02T07:36:34.302Z,60.60
2018-05-02T07:39:01.892Z,61.10
2018-05-02T07:41:30.238Z,59.20
2018-05-02T07:43:57.820Z,59.20
2018-05-02T07:46:26.197Z,58.60
2018-05-02T07:48:54.538Z,58.30
2018-05-02T07:51:22.144Z,58.30
2018-05-02T07:53:50.506Z,57.40
2018-05-02T07:56:18.096Z,57.40
2018-05-02T07:58:45.683Z,56.30
2018-05-02T08:01:13.340Z,56.40
2018-05-02T08:03:41.052Z,55.70
2018-05-02T08:06:08.670Z,56.10
2018-05-02T08:08:36.285Z,56.30
2018-05-02T08:11:04.882Z,56.50
2018-05-02T08:13:33.208Z,56.80
2018-05-02T08:16:00.809Z,56.70
2018-05-02T08:18:29.151Z,56.70
2018-05-02T08:20:56.750Z,56.70
2018-05-02T08:23:25.085Z,57.50
2018-05-02T08:25:52.686Z,58.10
2018-05-02T08:28:21.058Z,57.70
2018-05-02T08:30:49.421Z,57.90
2018-05-02T08:33:17.002Z,57.90
2018-05-02T08:35:45.385Z,57.60
2018-05-02T08:38:13.024Z,57.60
2018-05-02T08:40:40.584Z,58.00
2018-05-02T08:43:08.222Z,58.10
2018-05-02T08:45:35.764Z,57.90
2018-05-02T08:48:03.336Z,59.00
2018-05-02T08:50:30.948Z,58.50
2018-05-02T08:52:59.274Z,58.80
2018-05-02T08:55:26.860Z,58.80
2018-05-02T08:57:54.475Z,58.90
2018-05-02T09:00:22.043Z,60.20
2018-05-02T09:02:49.634Z,60.10
2018-05-02T09:05:17.201Z,60.00
2018-05-02T09:07:45.552Z,60.90
2018-05-02T09:10:13.186Z,60.90
2018-05-02T09:12:40.747Z,61.30
2018-05-02T09:15:08.309Z,61.20
2018-05-02T09:17:35.888Z,62.90
2018-05-02T09:20:03.493Z,63.30
2018-05-02T09:22:31.868Z,65.40
2018-05-02T09:25:00.207Z,65.30
2018-05-02T09:27:28.339Z,65.10
2018-05-02T09:29:56.069Z,66.90
2018-05-02T09:32:24.400Z,66.00
2018-05-02T09:34:52.016Z,65.90
2018-05-02T09:37:20.443Z,65.70
2018-05-02T09:39:48.047Z,65.60
2018-05-02T09:42:16.487Z,65.00
2018-05-02T09:44:44.080Z,65.00
2018-05-02T09:47:12.431Z,65.00
2018-05-02T09:49:40.076Z,64.90
2018-05-02T09:52:07.733Z,63.80
2018-05-02T09:54:35.317Z,63.20
2018-05-02T09:57:02.910Z,63.30
2018-05-02T09:59:31.252Z,62.40
2018-05-02T10:01:58.884Z,62.40
2018-05-02T10:04:26.531Z,62.50
2018-05-02T10:06:54.036Z,62.00
2018-05-02T10:09:21.628Z,61.70
2018-05-02T10:11:49.971Z,61.40
2018-05-02T10:14:17.572Z,61.40
2018-05-02T10:16:45.194Z,61.20
2018-05-02T10:19:12.772Z,60.20
2018-05-02T10:21:41.080Z,61.20
2018-05-02T10:24:08.689Z,60.50
2018-05-02T10:26:36.270Z,59.90
2018-05-02T10:29:03.869Z,59.70
2018-05-02T10:31:31.471Z,60.00
2018-05-02T10:33:59.106Z,59.80
2018-05-02T10:36:26.691Z,59.80
2018-05-02T10:38:54.268Z,60.20
2018-05-02T10:41:22.653Z,59.00
2018-05-02T10:43:50.990Z,59.80
2018-05-02T10:46:18.580Z,59.20
2018-05-02T10:48:46.180Z,60.00
2018-05-02T10:51:14.439Z,59.50
2018-05-02T10:53:42.091Z,58.50
2018-05-02T10:56:10.520Z,58.50
2018-05-02T10:58:38.079Z,59.10
2018-05-02T11:01:05.679Z,58.40
2018-05-02T11:03:33.288Z,59.10
2018-05-02T11:06:00.907Z,58.70
2018-05-02T11:08:29.353Z,57.40
2018-05-02T11:10:56.887Z,57.30
2018-05-02T11:13:24.470Z,57.30
2018-05-02T11:15:52.042Z,57.10
2018-05-02T11:18:19.658Z,56.90
2018-05-02T11:20:47.259Z,57.30
2018-05-02T11:23:14.858Z,56.40
2018-05-02T11:25:42.532Z,56.90
2018-05-02T11:28:10.119Z,55.90
2018-05-02T11:30:37.693Z,56.30
2018-05-02T11:33:05.301Z,56.20
2018-05-02T11:35:32.866Z,56.20
2018-05-02T11:38:00.460Z,56.20
2018-05-02T11:40:28.084Z,56.50
2018-05-02T11:42:56.414Z,56.30
2018-05-02T11:45:23.999Z,56.30
2018-05-02T11:47:52.409Z,55.80
2018-05-02T11:50:21.202Z,55.70
2018-05-02T11:52:48.862Z,56.00
2018-05-02T11:55:24.643Z,55.20
2018-05-02T11:58:02.217Z,55.80
2018-05-02T12:03:56.468Z,54.40
2018-05-02T12:06:24.027Z,54.40
2018-05-02T12:08:51.624Z,54.00
2018-05-02T12:11:20.056Z,52.70
2018-05-02T12:13:47.606Z,52.60
2018-05-02T12:16:15.216Z,52.80
2018-05-02T12:18:42.769Z,52.10
2018-05-02T12:21:10.330Z,51.10
2018-05-02T12:23:37.898Z,51.60
2018-05-02T12:26:05.476Z,51.50
2018-05-02T12:28:33.107Z,51.00
2018-05-02T12:31:00.703Z,51.20
2018-05-02T12:33:29.034Z,51.00
2018-05-02T12:35:56.619Z,51.00
2018-05-02T12:38:24.235Z,50.70
2018-05-02T12:40:51.809Z,50.00
2018-05-02T12:43:19.417Z,50.60
2018-05-02T12:45:47.733Z,49.60
2018-05-02T12:48:15.289Z,49.60
2018-05-02T12:50:42.875Z,50.30
2018-05-02T12:53:10.426Z,49.40
2018-05-02T12:55:37.990Z,48.70
2018-05-02T12:58:05.563Z,47.40
2018-05-02T13:00:33.115Z,48.50
2018-05-02T13:03:00.731Z,47.20
2018-05-02T13:05:29.128Z,46.70
2018-05-02T13:07:56.693Z,46.70
2018-05-02T13:10:24.275Z,47.20
2018-05-02T13:12:51.823Z,46.70
2018-05-02T13:15:19.409Z,46.80
2018-05-02T13:17:46.990Z,47.40
2018-05-02T13:20:14.560Z,48.40
2018-05-02T13:22:42.863Z,48.50
2018-05-02T13:25:10.487Z,48.50
2018-05-02T13:27:38.033Z,48.40
2018-05-02T13:30:06.324Z,47.50
2018-05-02T13:32:33.915Z,47.60
2018-05-02T13:35:01.462Z,47.60
2018-05-02T13:37:29.799Z,45.10
2018-05-02T13:39:57.392Z,45.10
2018-05-02T13:42:25.714Z,44.70
2018-05-02T13:44:53.282Z,44.70
2018-05-02T13:47:20.895Z,45.30
2018-05-02T13:49:49.247Z,43.50
2018-05-02T13:52:16.851Z,43.40
2018-05-02T13:54:45.195Z,42.80
2018-05-02T13:57:12.804Z,42.80
2018-05-02T13:59:40.399Z,44.90
2018-05-02T14:02:07.985Z,44.90
2018-05-02T14:04:35.581Z,45.00
2018-05-02T14:07:03.313Z,45.50
2018-05-02T14:09:30.882Z,44.60
2018-05-02T14:11:59.220Z,45.20
2018-05-02T14:14:26.802Z,45.20
2018-05-02T14:16:54.346Z,45.80
2018-05-02T14:19:21.944Z,45.40
2018-05-02T14:21:50.258Z,45.70
2018-05-02T14:24:17.835Z,45.70
2018-05-02T14:26:46.328Z,46.00
2018-05-02T14:29:13.925Z,45.50
2018-05-02T14:31:42.287Z,45.80
2018-05-02T14:34:09.840Z,45.70
2018-05-02T14:36:37.403Z,45.10
2018-05-02T14:39:04.980Z,46.30
2018-05-02T14:41:33.314Z,46.20
2018-05-02T14:44:00.877Z,46.20
2018-05-02T14:46:28.434Z,47.40
2018-05-02T14:48:56.017Z,47.40
2018-05-02T14:51:23.575Z,46.80
2018-05-02T14:53:51.132Z,46.50
2018-05-02T14:56:18.772Z,46.60
2018-05-02T14:58:46.302Z,46.40
2018-05-02T15:01:14.677Z,47.20
2018-05-02T15:03:43.019Z,47.40
2018-05-02T15:06:10.557Z,47.40
2018-05-02T15:08:38.146Z,47.30
2018-05-02T15:11:05.688Z,47.50
2018-05-02T15:13:33.263Z,47.70
2018-05-02T15:16:00.835Z,47.60
2018-05-02T15:18:28.424Z,47.70
2018-05-02T15:20:56.015Z,47.50
2018-05-02T15:23:23.564Z,48.20
2018-05-02T15:25:51.148Z,47.60
2018-05-02T15:28:18.725Z,47.80
2018-05-02T15:30:46.282Z,48.20
2018-05-02T15:33:13.880Z,48.40
2018-05-02T15:35:42.216Z,48.80
2018-05-02T15:38:10.223Z,48.70
2018-05-02T15:40:38.614Z,48.50
2018-05-02T15:43:06.925Z,49.30
2018-05-02T15:45:34.484Z,49.30
2018-05-02T15:48:02.071Z,48.70
2018-05-02T15:50:29.658Z,48.80
2018-05-02T15:52:58.113Z,48.90
2018-05-02T15:55:25.685Z,48.80
2018-05-02T15:57:53.240Z,48.90
2018-05-02T16:00:20.831Z,47.80
2018-05-02T16:02:49.222Z,48.90
2018-05-02T16:05:16.788Z,48.90
2018-05-02T16:07:44.364Z,48.30
2018-05-02T16:10:11.967Z,49.20
2018-05-02T16:12:39.550Z,49.20
2018-05-02T16:15:07.903Z,48.90
2018-05-02T16:17:35.518Z,48.90
2018-05-02T16:20:03.068Z,49.80
2018-05-02T16:22:30.956Z,50.00
2018-05-02T16:24:58.734Z,49.70
2018-05-02T16:27:26.306Z,49.90
2018-05-02T16:29:53.988Z,49.90
2018-05-02T16:32:21.550Z,49.40
2018-05-02T16:34:49.145Z,48.90
2018-05-02T16:37:17.034Z,49.20
2018-05-02T16:39:44.591Z,49.40
2018-05-02T16:42:12.169Z,49.80
2018-05-02T16:44:39.777Z,49.10
2018-05-02T16:47:08.110Z,49.40
2018-05-02T16:49:35.666Z,49.30
2018-05-02T16:52:03.334Z,49.70
2018-05-02T16:54:30.854Z,50.10
2018-05-02T16:56:58.421Z,50.20
2018-05-02T16:59:26.089Z,50.00
2018-05-02T17:01:53.639Z,50.30
2018-05-02T17:04:21.216Z,50.30
2018-05-02T17:06:48.793Z,50.90
2018-05-02T17:09:16.406Z,51.10
2018-05-02T17:11:44.735Z,51.10
2018-05-02T17:14:12.299Z,51.10
2018-05-02T17:16:39.930Z,51.00
2018-05-02T17:19:07.525Z,51.70
2018-05-02T17:21:35.059Z,51.60
2018-05-02T17:24:02.643Z,52.10
2018-05-02T17:26:30.220Z,52.30
2018-05-02T17:28:57.847Z,52.30
2018-05-02T17:31:25.474Z,52.60
2018-05-02T17:33:53.890Z,52.80
2018-05-02T17:36:21.486Z,53.40
2018-05-02T17:38:49.049Z,53.10
2018-05-02T17:41:16.623Z,53.40
2018-05-02T17:43:44.321Z,53.60
2018-05-02T17:46:11.930Z,54.10
2018-05-02T17:48:39.506Z,54.40
2018-05-02T17:51:07.132Z,54.20
2018-05-02T17:53:34.711Z,54.60
2018-05-02T17:56:02.272Z,54.70
2018-05-02T17:58:29.886Z,55.00
2018-05-02T18:00:57.440Z,55.30
2018-05-02T18:03:25.005Z,55.20
2018-05-02T18:05:52.582Z,55.40
2018-05-02T18:08:20.131Z,55.70
2018-05-02T18:10:47.677Z,55.80
2018-05-02T18:13:16.031Z,56.10
2018-05-02T18:15:44.395Z,56.30
2018-05-02T18:18:12.756Z,56.40
2018-05-02T18:20:40.339Z,56.20
2018-05-02T18:23:07.936Z,56.60
2018-05-02T18:25:36.256Z,57.10
2018-05-02T18:28:03.832Z,57.10
2018-05-02T18:30:31.526Z,57.10
2018-05-02T18:32:59.863Z,57.20
2018-05-02T18:35:27.427Z,57.10
2018-05-02T18:37:55.014Z,57.60
2018-05-02T18:40:22.621Z,57.70
2018-05-02T18:42:50.191Z,57.60
2018-05-02T18:45:17.767Z,57.60
2018-05-02T18:47:45.371Z,58.10
2018-05-02T18:50:13.757Z,58.60
2018-05-02T18:52:42.097Z,57.90
2018-05-02T18:55:09.662Z,58.00
2018-05-02T18:57:37.251Z,58.40
2018-05-02T19:00:05.584Z,58.80
2018-05-02T19:02:33.154Z,58.80
2018-05-02T19:05:00.726Z,58.70
2018-05-02T19:07:28.289Z,58.20
2018-05-02T19:09:56.631Z,58.40
2018-05-02T19:12:24.201Z,58.30
2018-05-02T19:14:51.747Z,58.60
2018-05-02T19:17:19.581Z,58.50
2018-05-02T19:19:53.521Z,58.50
2018-05-02T19:22:21.164Z,58.50
2018-05-02T19:24:54.337Z,58.70
2018-05-02T19:27:22.729Z,58.40
2018-05-02T19:29:51.097Z,58.60
2018-05-02T19:32:24.264Z,58.50
2018-05-02T19:34:51.857Z,58.40
2018-05-02T19:37:19.450Z,58.40
2018-05-02T19:39:52.559Z,59.20
2018-05-02T19:42:25.658Z,59.20
2018-05-02T19:44:53.216Z,59.20
2018-05-02T19:47:20.820Z,59.00
2018-05-02T19:49:48.376Z,59.00
2018-05-02T19:55:32.221Z,59.50
2018-05-02T19:57:59.843Z,59.40
2018-05-02T20:00:33.208Z,59.60
2018-05-02T20:03:02.432Z,60.00
2018-05-02T20:05:30.129Z,59.90
2018-05-02T20:07:57.866Z,59.60
2018-05-02T20:10:31.107Z,60.10
2018-05-02T20:13:05.762Z,59.40
2018-05-02T20:15:34.205Z,59.70
2018-05-02T20:18:01.770Z,59.60
2018-05-02T20:20:29.488Z,60.00
2018-05-02T20:22:57.830Z,60.20
2018-05-02T20:25:26.216Z,60.10
2018-05-02T20:27:53.784Z,60.10
2018-05-02T20:30:21.450Z,60.10
2018-05-02T20:32:49.029Z,60.20
2018-05-02T20:35:17.003Z,60.60
2018-05-02T20:37:46.192Z,60.40
2018-05-02T20:40:13.787Z,60.00
2018-05-02T20:42:41.384Z,60.30
2018-05-02T20:45:10.504Z,60.10
2018-05-02T20:47:38.183Z,60.10
2018-05-02T20:50:05.698Z,60.50
2018-05-02T20:52:33.317Z,61.10
2018-05-02T20:55:01.713Z,61.20
2018-05-02T20:57:32.768Z,61.20
2018-05-02T21:00:00.547Z,61.20
2018-05-02T21:02:28.475Z,60.40
2018-05-02T21:04:56.046Z,61.00
2018-05-02T21:07:25.257Z,62.30
2018-05-02T21:09:53.636Z,61.10
2018-05-02T21:12:21.233Z,61.20
2018-05-02T21:14:48.802Z,61.60
2018-05-02T21:17:16.396Z,61.30
2018-05-02T21:19:43.992Z,62.50
2018-05-02T21:22:12.344Z,62.00
2018-05-02T21:24:40.742Z,62.40
2018-05-02T21:27:08.343Z,62.40
2018-05-02T21:29:36.449Z,62.40
2018-05-02T21:32:04.422Z,62.30
2018-05-02T21:34:32.011Z,62.70
2018-05-02T21:36:59.610Z,62.50
2018-05-02T21:39:27.241Z,62.20
2018-05-02T21:41:54.894Z,62.20
2018-05-02T21:44:22.460Z,63.10
2018-05-02T21:46:50.083Z,62.00
2018-05-02T21:49:17.648Z,63.20
2018-05-02T21:51:45.216Z,63.30
2018-05-02T21:54:12.921Z,63.00
2018-05-02T21:56:40.510Z,61.80
2018-05-02T21:59:08.137Z,63.60
2018-05-02T22:01:36.520Z,61.90
2018-05-02T22:04:04.113Z,61.80
2018-05-02T22:06:31.666Z,62.30
2018-05-02T22:08:59.293Z,62.10
2018-05-02T22:11:27.640Z,62.50
2018-05-02T22:13:55.241Z,62.20
2018-05-02T22:16:23.626Z,62.90
2018-05-02T22:18:51.219Z,61.80
2018-05-02T22:21:18.802Z,63.30
2018-05-02T22:23:46.442Z,63.00
2018-05-02T22:26:14.225Z,63.00
2018-05-02T22:28:42.077Z,63.30
2018-05-02T22:31:09.654Z,63.40
2018-05-02T22:33:37.317Z,63.00
2018-05-02T22:36:04.925Z,63.20
2018-05-02T22:38:32.515Z,62.90
2018-05-02T22:41:00.097Z,62.90
2018-05-02T22:43:28.358Z,63.40
2018-05-02T22:45:55.987Z,63.30
2018-05-02T22:48:24.350Z,63.20
2018-05-02T22:50:51.919Z,63.10
2018-05-02T22:53:20.280Z,63.80
2018-05-02T22:55:47.882Z,63.80
2018-05-02T22:58:15.571Z,64.00
2018-05-02T23:00:43.180Z,63.80
2018-05-02T23:03:11.675Z,63.50
2018-05-02T23:05:40.050Z,64.40
2018-05-02T23:08:08.413Z,63.70
2018-05-02T23:10:36.005Z,63.70
2018-05-02T23:13:03.618Z,65.10
2018-05-02T23:15:31.252Z,63.70
2018-05-02T23:17:58.839Z,64.10
2018-05-02T23:20:26.500Z,64.60
2018-05-02T23:22:54.104Z,64.50
2018-05-02T23:25:22.433Z,64.90
2018-05-02T23:27:50.071Z,64.90
2018-05-02T23:30:17.721Z,65.00
2018-05-02T23:32:45.245Z,64.60
2018-05-02T23:35:12.878Z,65.40
2018-05-02T23:37:40.451Z,65.70
2018-05-02T23:40:08.025Z,65.30
2018-05-02T23:42:35.641Z,65.30
2018-05-02T23:45:03.220Z,65.30
2018-05-02T23:47:30.827Z,66.10
2018-05-02T23:49:59.228Z,66.20
2018-05-02T23:52:26.793Z,66.20
2018-05-02T23:54:54.743Z,66.60
2018-05-02T23:57:23.085Z,66.00
2018-05-02T23:59:50.657Z,65.90
